Time;durP1;ratioP1;P1;durP2;ratioP2;P2;SDS_P1;SDS_P2;PMS_P1;PMS_P2;Temp;Humidity;BMP_temperature;BMP_pressure;BME280_temperature;BME280_humidity;BME280_pressure;Samples;Min_cycle;Max_cycle;Signal;HPM_P1;HPM_P2
2023/12/28 00:00:47;;;;;;;7.18;2.15;;;;;;;;;;5010141;28;20077;-81
2023/12/28 00:03:13;;;;;;;5.45;3.03;;;;;;;;;;5009561;28;20038;-81
2023/12/28 00:05:39;;;;;;;3.25;1.80;;;;;;;;;;5011380;28;20658;-81
2023/12/28 00:08:05;;;;;;;6.18;2.58;;;;;;;;;;4992841;28;20034;-80
2023/12/28 00:10:32;;;;;;;5.78;2.67;;;;;;;;;;5011092;28;20178;-81
2023/12/28 00:12:58;;;;;;;6.40;3.72;;;;;;;;;;5008266;28;20022;-81
2023/12/28 00:15:24;;;;;;;3.33;1.98;;;;;;;;;;5008842;28;20811;-81
2023/12/28 00:17:50;;;;;;;9.38;2.95;;;;;;;;;;5009486;28;20058;-81
2023/12/28 00:20:16;;;;;;;7.65;2.88;;;;;;;;;;5011800;28;20041;-81
2023/12/28 00:22:42;;;;;;;4.63;2.33;;;;;;;;;;5013240;28;20033;-82
2023/12/28 00:25:08;;;;;;;6.03;3.13;;;;;;;;;;5008321;28;20022;-81
2023/12/28 00:27:35;;;;;;;3.85;2.17;;;;;;;;;;5010642;28;20300;-81
2023/12/28 00:30:01;;;;;;;3.25;2.17;;;;;;;;;;5009416;28;20026;-80
2023/12/28 00:32:27;;;;;;;6.78;2.05;;;;;;;;;;5012553;28;20040;-81
2023/12/28 00:34:53;;;;;;;6.43;2.65;;;;;;;;;;5008906;28;20024;-79
2023/12/28 00:37:19;;;;;;;5.40;2.60;;;;;;;;;;5009904;28;20053;-79
2023/12/28 00:39:46;;;;;;;9.85;3.13;;;;;;;;;;5014395;28;20042;-78
2023/12/28 00:42:12;;;;;;;7.47;4.45;;;;;;;;;;5028517;28;20028;-79
2023/12/28 00:44:38;;;;;;;8.32;2.53;;;;;;;;;;5025735;28;20046;-79
2023/12/28 00:47:06;;;;;;;3.38;2.22;;;;;;;;;;5021852;28;20045;-79
2023/12/28 00:49:32;;;;;;;10.68;2.42;;;;;;;;;;5000892;28;20572;-81
2023/12/28 00:51:58;;;;;;;2.35;1.85;;;;;;;;;;5011290;28;20030;-81
2023/12/28 00:54:24;;;;;;;3.53;2.38;;;;;;;;;;5009461;28;20030;-79
2023/12/28 00:56:50;;;;;;;3.72;2.13;;;;;;;;;;5012607;28;20048;-82
2023/12/28 00:59:15;;;;;;;3.38;1.33;;;1.00;99.90;;;;;;5001303;28;20061;-81
2023/12/28 01:01:41;;;;;;;6.55;1.85;;;;;;;;;;5011807;28;20029;-80
2023/12/28 01:04:07;;;;;;;10.25;1.50;;;;;;;;;;5010097;28;20050;-81
2023/12/28 01:06:33;;;;;;;4.00;1.98;;;;;;;;;;5010514;28;20037;-82
2023/12/28 01:08:59;;;;;;;3.33;1.85;;;;;;;;;;5001633;28;20026;-82
2023/12/28 01:11:25;;;;;;;2.80;1.67;;;;;;;;;;4999624;28;20088;-81
2023/12/28 01:13:54;;;;;;;3.53;2.08;;;;;;;;;;5006890;28;20026;-80
2023/12/28 01:16:20;;;;;;;3.10;1.65;;;;;;;;;;5008759;28;20022;-82
2023/12/28 01:18:46;;;;;;;2.03;1.50;;;;;;;;;;5004491;28;20030;-81
2023/12/28 01:21:12;;;;;;;2.13;1.17;;;;;;;;;;5002842;28;20477;-80
2023/12/28 01:23:38;;;;;;;1.42;1.08;;;;;;;;;;4995084;28;20026;-81
2023/12/28 01:26:04;;;;;;;5.47;1.63;;;;;;;;;;5008333;28;20021;-81
2023/12/28 01:28:30;;;;;;;2.95;1.67;;;;;;;;;;5006785;28;20116;-82
2023/12/28 01:30:56;;;;;;;6.22;1.85;;;;;;;;;;5008183;28;20061;-80
2023/12/28 01:33:22;;;;;;;3.38;1.60;;;;;;;;;;5004371;28;20061;-82
2023/12/28 01:35:48;;;;;;;4.97;1.75;;;;;;;;;;5006414;28;20061;-81
2023/12/28 01:38:14;;;;;;;2.13;1.17;;;;;;;;;;5007262;28;20079;-81
2023/12/28 01:40:44;;;;;;;3.85;1.48;;;;;;;;;;5006570;28;20121;-80
2023/12/28 01:43:10;;;;;;;3.95;1.30;;;;;;;;;;5006100;28;20025;-81
2023/12/28 01:45:37;;;;;;;1.70;1.38;;;;;;;;;;5005441;28;20033;-81
2023/12/28 01:48:04;;;;;;;2.10;1.27;;;;;;;;;;5003149;28;20361;-81
2023/12/28 01:50:31;;;;;;;2.88;1.80;;;;;;;;;;4982797;28;20030;-80
2023/12/28 01:52:59;;;;;;;1.75;1.08;;;;;;;;;;5001687;28;20033;-80
2023/12/28 01:55:26;;;;;;;8.77;1.73;;;;;;;;;;5010178;28;20357;-81
2023/12/28 01:57:52;;;;;;;11.48;1.92;;;;;;;;;;5004131;28;20426;-79
2023/12/28 02:00:18;;;;;;;5.10;2.15;;;;;;;;;;5008021;28;20038;-80
2023/12/28 02:02:45;;;;;;;5.65;2.47;;;;;;;;;;5004143;28;20483;-81
2023/12/28 02:05:14;;;;;;;2.92;1.95;;;;;;;;;;4995879;28;20033;-81
2023/12/28 02:07:41;;;;;;;3.75;1.75;;;;;;;;;;4997858;28;20029;-81
2023/12/28 02:10:07;;;;;;;3.92;1.90;;;;;;;;;;4998348;28;20017;-79
2023/12/28 02:12:34;;;;;;;4.00;1.85;;;;;;;;;;5011312;28;20017;-78
2023/12/28 02:15:00;;;;;;;4.43;1.52;;;;;;;;;;5030019;28;20034;-80
2023/12/28 02:17:36;;;;;;;6.85;2.45;;;;;;;;;;5016557;28;20533;-80
2023/12/28 02:20:06;;;;;;;3.17;1.75;;;;;;;;;;5000445;28;20027;-81
2023/12/28 02:22:32;;;;;;;4.07;2.30;;;;;;;;;;5008532;28;20022;-80
2023/12/28 02:25:13;;;;;;;2.47;1.90;;;;;;;;;;5005747;28;20036;-79
2023/12/28 02:27:43;;;;;;;4.13;1.65;;;;;;;;;;5010556;28;20406;-80
2023/12/28 02:30:30;;;;;;;3.97;2.22;;;;;;;;;;5004222;28;20037;-80
2023/12/28 02:33:03;;;;;;;7.63;2.00;;;;;;;;;;5004202;28;20137;-79
2023/12/28 02:35:28;;;;;;;8.03;2.10;;;;;;;;;;5010069;28;20502;-80
2023/12/28 02:37:56;;;;;;;6.82;2.47;;;;;;;;;;5002227;28;20060;-79
2023/12/28 02:40:22;;;;;;;3.97;1.58;;;;;;;;;;5003782;28;20088;-80
2023/12/28 02:42:48;;;;;;;3.78;1.83;;;;;;;;;;4989414;28;20525;-79
2023/12/28 02:45:14;;;;;;;4.00;1.85;;;;;;;;;;5004289;28;20058;-82
2023/12/28 02:47:40;;;;;;;3.85;2.45;;;;;;;;;;5008388;28;20018;-80
2023/12/28 02:50:07;;;;;;;2.28;1.80;;;;;;;;;;5004013;28;20032;-80
2023/12/28 02:52:33;;;;;;;3.83;1.65;;;;;;;;;;5001918;28;20042;-78
2023/12/28 02:54:58;;;;;;;5.38;2.40;;;;;;;;;;5011479;28;20026;-79
2023/12/28 02:57:24;;;;;;;5.20;2.72;;;;;;;;;;5008050;28;20030;-80
2023/12/28 03:00:12;;;;;;;3.50;1.80;;;;;;;;;;4999114;28;20026;-79
2023/12/28 03:02:38;;;;;;;4.65;2.25;;;;;;;;;;5002027;28;20056;-80
2023/12/28 03:05:05;;;;;;;3.92;2.03;;;;;;;;;;5005622;28;20034;-79
2023/12/28 03:07:33;;;;;;;1.92;1.25;;;;;;;;;;5008941;28;20050;-79
2023/12/28 03:09:59;;;;;;;3.13;2.00;;;;;;;;;;5004768;28;20056;-78
2023/12/28 03:12:25;;;;;;;2.25;1.23;;;;;;;;;;5010112;28;20042;-79
2023/12/28 03:14:51;;;;;;;3.03;1.98;;;;;;;;;;4997650;28;20081;-80
2023/12/28 03:17:17;;;;;;;3.53;2.03;;;;;;;;;;5006250;28;20610;-80
2023/12/28 03:19:43;;;;;;;3.05;1.40;;;;;;;;;;5001955;28;20041;-79
2023/12/28 03:22:08;;;;;;;3.88;1.73;;;;;;;;;;5003702;28;20042;-80
2023/12/28 03:24:34;;;;;;;6.07;1.92;;;;;;;;;;5008622;28;20026;-81
2023/12/28 03:27:00;;;;;;;3.08;1.42;;;;;;;;;;5010402;28;20037;-80
2023/12/28 03:29:27;;;;;;;4.95;1.60;;;;;;;;;;4998166;28;20034;-82
2023/12/28 03:31:53;;;;;;;2.67;1.58;;;;;;;;;;5015030;28;20112;-79
2023/12/28 03:34:19;;;;;;;4.78;2.03;;;;;;;;;;5008786;28;20090;-79
2023/12/28 03:36:45;;;;;;;2.28;1.63;;;;;;;;;;5002862;28;20038;-81
2023/12/28 03:39:11;;;;;;;5.20;1.55;;;;;;;;;;5009393;28;20030;-81
2023/12/28 03:41:37;;;;;;;3.03;1.40;;;;;;;;;;5010835;28;20410;-82
2023/12/28 03:44:03;;;;;;;3.13;1.60;;;;;;;;;;5003189;28;20769;-81
2023/12/28 03:46:29;;;;;;;2.97;1.30;;;;;;;;;;5008848;28;20460;-80
2023/12/28 03:48:55;;;;;;;4.60;1.90;;;;;;;;;;5007433;28;20046;-79
2023/12/28 03:51:21;;;;;;;8.30;2.25;;;;;;;;;;5010656;28;20844;-80
2023/12/28 03:53:47;;;;;;;3.80;1.77;;;;;;;;;;5009251;28;20022;-80
2023/12/28 03:56:40;;;;;;;4.07;1.90;;;;;;;;;;5010903;28;20586;-81
2023/12/28 03:59:06;;;;;;;4.10;1.65;;;;;;;;;;5007609;28;20650;-80
2023/12/28 04:01:33;;;;;;;2.78;1.75;;;;;;;;;;5010383;28;20026;-80
2023/12/28 04:03:59;;;;;;;5.20;2.17;;;;;;;;;;5004548;28;20037;-78
2023/12/28 04:06:25;;;;;;;2.60;1.38;;;;;;;;;;5011405;28;20026;-80
2023/12/28 04:08:51;;;;;;;4.25;1.92;;;;;;;;;;5005946;28;20018;-80
2023/12/28 04:11:17;;;;;;;3.58;1.33;;;;;;;;;;5012565;28;20165;-81
2023/12/28 04:13:43;;;;;;;3.60;1.63;;;;;;;;;;5006599;28;20033;-80
2023/12/28 04:16:12;;;;;;;8.57;2.33;;;;;;;;;;5008545;28;20034;-81
2023/12/28 04:18:38;;;;;;;3.35;1.73;;;;;;;;;;5008380;28;20522;-80
2023/12/28 04:21:04;;;;;;;2.10;1.40;;;;;;;;;;5005998;28;20069;-80
2023/12/28 04:23:30;;;;;;;6.10;1.77;;;;;;;;;;4984264;28;20025;-79
2023/12/28 04:25:56;;;;;;;2.45;1.30;;;;;;;;;;5012957;28;20037;-81
2023/12/28 04:28:22;;;;;;;4.72;1.58;;;;;;;;;;5008649;28;20018;-80
2023/12/28 04:30:48;;;;;;;3.50;1.52;;;;;;;;;;5009142;28;20528;-80
2023/12/28 04:33:18;;;;;;;2.22;1.52;;;;;;;;;;5006144;28;20053;-81
2023/12/28 04:35:44;;;;;;;2.20;1.45;;;;;;;;;;5002232;28;20509;-81
2023/12/28 04:38:10;;;;;;;4.30;1.95;;;;;;;;;;5002820;28;20094;-82
2023/12/28 04:40:36;;;;;;;5.05;1.30;;;;;;;;;;5011117;28;20021;-79
2023/12/28 04:43:02;;;;;;;3.00;1.38;;;;;;;;;;5008956;28;20026;-80
2023/12/28 04:45:28;;;;;;;3.40;1.85;;;;;;;;;;5006493;28;20034;-79
2023/12/28 04:47:54;;;;;;;2.95;1.48;;;;;;;;;;5011940;28;20030;-80
2023/12/28 04:50:20;;;;;;;3.50;1.10;;;;;;;;;;5011947;28;20159;-82
2023/12/28 04:52:46;;;;;;;2.60;1.50;;;;;;;;;;5009300;28;20072;-80
2023/12/28 04:55:12;;;;;;;1.35;0.90;;;;;;;;;;5008877;28;20022;-81
2023/12/28 04:57:38;;;;;;;2.20;1.40;;;;;;;;;;5010892;28;20668;-80
2023/12/28 05:00:05;;;;;;;3.15;1.67;;;;;;;;;;5008501;28;20053;-80
2023/12/28 05:02:31;;;;;;;3.20;1.52;;;;;;;;;;5007305;28;20022;-80
2023/12/28 05:04:57;;;;;;;1.63;1.10;;;;;;;;;;5013005;28;20464;-80
2023/12/28 05:07:23;;;;;;;3.10;1.13;;;;;;;;;;5014318;28;20041;-80
2023/12/28 05:09:48;;;;;;;2.85;1.45;;;;;;;;;;5006846;28;20037;-80
2023/12/28 05:12:14;;;;;;;2.83;1.67;;;;;;;;;;5009852;28;20022;-80
2023/12/28 05:14:40;;;;;;;1.60;1.50;;;;;;;;;;5007888;28;20022;-80
2023/12/28 05:17:06;;;;;;;2.00;0.95;;;;;;;;;;5012455;28;20034;-80
2023/12/28 05:19:32;;;;;;;2.80;1.38;;;;;;;;;;5009010;28;20040;-81
2023/12/28 05:22:02;;;;;;;4.38;1.85;;;;;;;;;;5011798;28;20018;-81
2023/12/28 05:24:28;;;;;;;2.30;1.23;;;;;;;;;;5006414;28;20056;-80
2023/12/28 05:26:54;;;;;;;2.28;1.30;;;;;;;;;;5013603;28;20648;-80
2023/12/28 05:29:20;;;;;;;3.40;1.35;;;;;;;;;;5007463;28;20029;-81
2023/12/28 05:31:46;;;;;;;1.73;1.00;;;;;;;;;;5009278;28;20375;-79
2023/12/28 05:34:12;;;;;;;4.00;1.42;;;;;;;;;;5018700;28;20081;-79
2023/12/28 05:36:40;;;;;;;3.72;1.67;;;;;;;;;;5031566;28;21762;-79
2023/12/28 05:39:06;;;;;;;1.33;1.02;;;;;;;;;;5017476;28;20064;-79
2023/12/28 05:41:32;;;;;;;4.20;1.95;;;;;;;;;;5013882;28;20030;-79
2023/12/28 05:43:58;;;;;;;5.18;2.35;;;;;;;;;;5020183;28;20085;-78
2023/12/28 05:46:24;;;;;;;5.68;3.10;;;;;;;;;;5021362;28;20060;-78
2023/12/28 05:48:50;;;;;;;4.28;1.48;;;;;;;;;;5020062;28;20037;-78
2023/12/28 05:51:16;;;;;;;3.65;1.38;;;;;;;;;;5017375;28;20041;-81
2023/12/28 05:53:42;;;;;;;11.35;3.88;;;;;;;;;;4989721;28;20036;-81
2023/12/28 05:56:09;;;;;;;45.50;15.70;;;;;;;;;;5008011;28;20630;-80
2023/12/28 05:58:35;;;;;;;9.63;3.90;;;;;;;;;;5004749;28;20076;-81
2023/12/28 06:01:00;;;;;;;3.55;1.98;;;;;;;;;;5010181;28;22717;-81
2023/12/28 06:03:28;;;;;;;5.80;2.67;;;;;;;;;;5013661;28;20036;-81
2023/12/28 06:05:54;;;;;;;6.68;2.47;;;;;;;;;;5008413;28;20026;-81
2023/12/28 06:08:20;;;;;;;79.32;19.63;;;;;;;;;;4997956;28;20037;-79
2023/12/28 06:10:46;;;;;;;44.15;11.20;;;;;;;;;;5014356;28;20038;-81
2023/12/28 06:13:13;;;;;;;22.23;8.55;;;;;;;;;;5008054;28;20168;-81
2023/12/28 06:15:38;;;;;;;27.17;10.48;;;;;;;;;;5004207;28;20044;-83
2023/12/28 06:18:04;;;;;;;24.17;9.75;;;;;;;;;;5004055;28;20038;-79
2023/12/28 06:20:30;;;;;;;16.80;7.50;;;;;;;;;;5009516;28;20042;-80
2023/12/28 06:22:56;;;;;;;4.95;2.70;;;;;;;;;;5009435;28;20041;-80
2023/12/28 06:25:22;;;;;;;4.43;2.78;;;;;;;;;;5002022;28;20096;-80
2023/12/28 06:27:48;;;;;;;4.55;1.73;;;;;;;;;;5005587;28;20092;-80
2023/12/28 06:30:14;;;;;;;3.40;2.28;;;;;;;;;;5009636;28;20045;-80
2023/12/28 06:32:40;;;;;;;1.90;1.00;;;;;;;;;;5012714;28;20017;-82
2023/12/28 06:35:07;;;;;;;2.70;1.25;;;;;;;;;;5001063;28;21062;-81
2023/12/28 06:37:33;;;;;;;2.97;1.08;;;;;;;;;;5007665;28;20105;-81
2023/12/28 06:39:58;;;;;;;3.00;1.30;;;;;;;;;;5006643;28;20527;-81
2023/12/28 06:42:24;;;;;;;2.80;1.20;;;;;;;;;;5017563;28;20563;-82
2023/12/28 06:44:50;;;;;;;2.85;1.20;;;;;;;;;;5002523;28;20417;-81
2023/12/28 06:47:16;;;;;;;3.00;1.38;;;;;;;;;;5012411;28;20093;-83
2023/12/28 06:49:42;;;;;;;2.67;1.30;;;;;;;;;;5002323;28;20060;-80
2023/12/28 06:52:08;;;;;;;3.38;1.55;;;;;;;;;;5005035;28;20030;-81
2023/12/28 06:54:34;;;;;;;4.50;1.05;;;;;;;;;;5009433;28;20113;-80
2023/12/28 06:57:01;;;;;;;4.90;1.23;;;;;;;;;;5011254;28;20042;-82
2023/12/28 06:59:27;;;;;;;2.42;1.08;;;;;;;;;;5008300;28;20033;-80
2023/12/28 07:01:52;;;;;;;2.15;0.95;;;;;;;;;;5012653;28;20616;-83
2023/12/28 07:04:18;;;;;;;2.92;0.85;;;;;;;;;;5006610;28;20537;-82
2023/12/28 07:06:44;;;;;;;2.40;0.95;;;;;;;;;;5015247;28;20486;-82
2023/12/28 07:09:10;;;;;;;3.35;1.30;;;;;;;;;;5006616;28;21745;-81
2023/12/28 07:11:36;;;;;;;8.70;1.80;;;;;;;;;;5002373;28;20053;-81
2023/12/28 07:14:03;;;;;;;1.85;1.15;;;;;;;;;;5012163;28;20613;-82
2023/12/28 07:16:28;;;;;;;2.97;1.17;;;;;;;;;;5012484;28;20045;-80
2023/12/28 07:18:54;;;;;;;1.60;0.75;;;;;;;;;;5012451;28;20022;-81
2023/12/28 07:21:20;;;;;;;6.28;1.33;;;;;;;;;;5011229;28;20116;-81
2023/12/28 07:23:49;;;;;;;3.50;1.20;;;;;;;;;;5002476;28;20034;-80
2023/12/28 07:26:15;;;;;;;2.55;1.13;;;;;;;;;;5011381;28;20065;-82
2023/12/28 07:28:44;;;;;;;2.35;0.73;;;;;;;;;;4997131;28;20988;-81
2023/12/28 07:31:11;;;;;;;3.00;1.00;;;;;;;;;;5004570;28;20030;-81
2023/12/28 07:33:37;;;;;;;4.22;1.23;;;;;;;;;;5006075;28;20033;-81
2023/12/28 07:36:05;;;;;;;6.88;3.58;;;;;;;;;;5008901;28;20036;-81
2023/12/28 07:38:49;;;;;;;2.00;0.98;;;;;;;;;;4996553;28;20034;-80
2023/12/28 07:41:15;;;;;;;2.90;1.05;;;;;;;;;;5004720;28;20080;-80
2023/12/28 07:43:41;;;;;;;3.70;1.05;;;;;;;;;;5008901;28;20045;-81
2023/12/28 07:46:07;;;;;;;3.00;1.35;;;;;;;;;;5012028;28;20173;-80
2023/12/28 07:48:33;;;;;;;2.53;1.02;;;;;;;;;;5007207;28;20026;-81
2023/12/28 07:50:59;;;;;;;2.25;0.63;;;;;;;;;;5007433;28;20607;-82
2023/12/28 07:53:25;;;;;;;3.08;1.27;;;;;;;;;;5004178;28;20044;-82
2023/12/28 07:55:51;;;;;;;3.97;1.95;;;;;;;;;;5009581;28;20042;-82
2023/12/28 07:58:17;;;;;;;5.72;1.30;;;;;;;;;;5006657;28;20053;-81
2023/12/28 08:00:42;;;;;;;1.80;0.80;;;;;;;;;;5008855;28;20026;-81
2023/12/28 08:03:08;;;;;;;1.83;1.00;;;;;;;;;;5008106;28;20034;-83
2023/12/28 08:05:35;;;;;;;1.60;0.93;;;;;;;;;;4991274;28;20030;-80
2023/12/28 08:08:02;;;;;;;2.72;1.55;;;;;;;;;;5009227;28;20057;-81
2023/12/28 08:10:28;;;;;;;2.55;1.13;;;;;;;;;;5011019;28;20202;-81
2023/12/28 08:12:54;;;;;;;2.97;1.02;;;;;;;;;;5008504;28;20068;-80
2023/12/28 08:15:20;;;;;;;2.13;0.93;;;;;;;;;;5010359;28;20031;-82
2023/12/28 08:17:46;;;;;;;1.98;0.88;;;;;;;;;;5007538;28;20065;-79
2023/12/28 08:20:12;;;;;;;3.10;1.73;;;;;;;;;;5008197;28;20041;-81
2023/12/28 08:22:38;;;;;;;10.10;2.30;;;;;;;;;;5005727;28;20030;-81
2023/12/28 08:25:04;;;;;;;4.07;1.80;;;;;;;;;;5006199;28;20034;-82
2023/12/28 08:27:30;;;;;;;4.20;1.70;;;;;;;;;;5005510;28;20029;-80
2023/12/28 08:29:56;;;;;;;6.00;1.05;;;;;;;;;;4997959;28;20113;-82
2023/12/28 08:32:22;;;;;;;2.85;1.30;;;;;;;;;;4998325;28;20021;-79
2023/12/28 08:34:49;;;;;;;2.08;0.82;;;;;;;;;;5004447;28;20038;-79
2023/12/28 08:37:15;;;;;;;4.60;1.67;;;;;;;;;;5007240;28;20681;-81
2023/12/28 08:39:41;;;;;;;1.67;0.85;;;;;;;;;;5006214;28;20520;-81
2023/12/28 08:42:06;;;;;;;2.22;1.23;;;;;;;;;;5008332;28;20034;-81
2023/12/28 08:44:33;;;;;;;4.90;1.67;;;;;;;;;;5006958;28;20026;-80
2023/12/28 08:46:59;;;;;;;3.15;1.15;;;;;;;;;;5013834;28;20089;-80
2023/12/28 08:49:25;;;;;;;4.03;1.50;;;;;;;;;;5006914;28;20074;-79
2023/12/28 08:51:51;;;;;;;5.03;2.03;;;;;;;;;;5006610;28;20453;-79
2023/12/28 08:54:17;;;;;;;8.10;2.30;;;;;;;;;;5004194;28;20497;-79
2023/12/28 08:56:43;;;;;;;4.15;2.22;;;;;;;;;;5010122;28;20034;-81
2023/12/28 08:59:09;;;;;;;6.75;2.15;;;;;;;;;;5008714;28;20632;-80
2023/12/28 09:01:35;;;;;;;1.80;1.35;;;;;;;;;;5027341;28;20018;-79
2023/12/28 09:04:01;;;;;;;2.53;1.45;;;;;;;;;;5025044;28;20032;-81
2023/12/28 09:06:27;;;;;;;2.72;1.58;;;;;;;;;;5018683;28;20057;-81
2023/12/28 09:08:54;;;;;;;4.60;1.33;;;;;;;;;;5010507;28;20061;-81
2023/12/28 09:11:20;;;;;;;4.55;2.80;;;;;;;;;;5010268;28;20053;-80
2023/12/28 09:13:46;;;;;;;5.05;1.40;;;;;;;;;;5010992;28;20026;-80
2023/12/28 09:16:13;;;;;;;2.92;1.10;;;;;;;;;;5006950;28;20053;-80
2023/12/28 09:18:39;;;;;;;6.88;1.98;;;;;;;;;;5006385;28;20034;-81
2023/12/28 09:21:06;;;;;;;5.88;2.00;;;;;;;;;;5007061;28;20113;-81
2023/12/28 09:23:32;;;;;;;6.40;2.58;;;;;;;;;;4994321;28;20060;-79
2023/12/28 09:26:03;;;;;;;8.45;2.42;;;7.90;99.90;;;;;;5006355;28;20041;-80
2023/12/28 09:28:29;;;;;;;4.85;2.28;;;;;;;;;;5009245;28;20034;-82
2023/12/28 09:30:55;;;;;;;4.60;1.83;;;;;;;;;;5007259;28;20034;-81
2023/12/28 09:33:21;;;;;;;7.47;2.13;;;;;;;;;;5007426;28;20045;-81
2023/12/28 09:35:47;;;;;;;3.65;1.90;;;;;;;;;;5005482;28;20108;-81
2023/12/28 09:38:14;;;;;;;6.50;2.28;;;;;;;;;;5002955;28;20045;-81
2023/12/28 09:40:42;;;;;;;2.45;1.55;;;;;;;;;;5005040;28;20128;-81
2023/12/28 09:43:08;;;;;;;3.10;1.55;;;;;;;;;;5000023;28;20036;-78
2023/12/28 09:45:34;;;;;;;3.05;1.65;;;;;;;;;;4995745;28;20038;-79
2023/12/28 09:48:02;;;;;;;3.40;1.42;;;;;;;;;;4999838;28;20490;-80
2023/12/28 09:50:29;;;;;;;2.88;1.27;;;;;;;;;;5002436;28;20029;-82
2023/12/28 09:52:55;;;;;;;4.80;1.85;;;;;;;;;;5002911;28;20026;-81
2023/12/28 09:55:21;;;;;;;4.10;1.25;;;;;;;;;;5010991;28;20461;-82
2023/12/28 09:57:47;;;;;;;3.55;1.52;;;;;;;;;;5003766;28;20022;-80
2023/12/28 10:00:13;;;;;;;18.20;3.08;;;;;;;;;;5009434;28;20164;-82
2023/12/28 10:02:41;;;;;;;11.18;1.75;;;;;;;;;;5000382;28;20426;-80
2023/12/28 10:05:07;;;;;;;7.43;1.27;;;;;;;;;;5006019;28;20129;-83
2023/12/28 10:07:33;;;;;;;17.77;1.70;;;;;;;;;;5002658;28;20029;-82
2023/12/28 10:09:59;;;;;;;6.55;1.15;;;;;;;;;;4995095;28;20381;-80
2023/12/28 10:12:27;;;;;;;12.15;2.03;;;;;;;;;;4988779;28;20480;-81
2023/12/28 10:14:54;;;;;;;3.17;1.35;;;;;;;;;;4975175;28;20030;-80
2023/12/28 10:17:20;;;;;;;11.77;2.88;;;;;;;;;;5001371;28;20069;-82
2023/12/28 10:19:47;;;;;;;9.35;2.47;;;;;;;;;;4991462;28;20546;-81
2023/12/28 10:22:14;;;;;;;2.65;0.85;;;;;;;;;;4988265;28;20030;-80
2023/12/28 10:24:46;;;;;;;6.78;1.60;;;;;;;;;;4991832;28;20032;-80
2023/12/28 10:27:14;;;;;;;3.00;1.10;;;;;;;;;;4997386;28;20057;-80
2023/12/28 10:29:40;;;;;;;2.75;1.15;;;;;;;;;;4991512;28;20096;-81
2023/12/28 10:32:06;;;;;;;3.25;1.55;;;;;;;;;;5000044;28;20033;-81
2023/12/28 10:34:32;;;;;;;15.80;5.80;;;;;;;;;;4996312;28;20117;-79
2023/12/28 10:36:59;;;;;;;20.20;6.28;;;;;;;;;;5002507;28;20098;-80
2023/12/28 10:39:26;;;;;;;2.60;1.52;;;;;;;;;;4995726;28;20099;-80
2023/12/28 10:41:54;;;;;;;8.45;4.18;;;;;;;;;;4996869;28;20126;-79
2023/12/28 10:44:21;;;;;;;8.60;3.90;;;8.40;99.90;;;;;;5000686;28;20061;-81
2023/12/28 10:46:48;;;;;;;4.22;2.35;;;;;;;;;;5005839;28;21350;-77
2023/12/28 10:49:16;;;;;;;6.45;2.55;;;;;;;;;;5017850;28;20014;-79
2023/12/28 10:51:43;;;;;;;9.80;3.63;;;;;;;;;;5017667;28;20030;-78
2023/12/28 10:54:19;;;;;;;48.65;18.38;;;;;;;;;;5015988;28;20034;-78
2023/12/28 10:56:47;;;;;;;48.60;18.13;;;;;;;;;;4993434;28;20041;-79
2023/12/28 10:59:16;;;;;;;25.45;12.15;;;;;;;;;;4995371;28;20045;-81
2023/12/28 11:01:43;;;;;;;15.70;7.05;;;;;;;;;;4992351;28;20022;-81
2023/12/28 11:04:22;;;;;;;9.35;5.03;;;;;;;;;;4995161;28;20065;-82
2023/12/28 11:06:50;;;;;;;3.35;2.53;;;;;;;;;;5000271;28;20030;-82
2023/12/28 11:09:16;;;;;;;6.57;2.47;;;;;;;;;;4991749;28;22371;-81
2023/12/28 11:11:46;;;;;;;4.65;2.15;;;;;;;;;;4998924;28;20034;-80
2023/12/28 11:14:13;;;;;;;5.57;1.77;;;;;;;;;;5008979;28;20046;-82
2023/12/28 11:16:39;;;;;;;5.70;1.33;;;;;;;;;;5003652;28;20521;-83
2023/12/28 11:19:05;;;;;;;6.75;2.78;;;;;;;;;;5001948;28;20057;-79
2023/12/28 11:21:32;;;;;;;5.68;2.80;;;;;;;;;;5004403;28;20506;-80
2023/12/28 11:23:58;;;;;;;5.45;1.83;;;;;;;;;;4992118;28;20034;-80
2023/12/28 11:26:24;;;;;;;9.23;2.40;;;;;;;;;;5008295;28;20107;-81
2023/12/28 11:28:50;;;;;;;6.28;2.17;;;;;;;;;;4996552;28;20038;-79
2023/12/28 11:31:18;;;;;;;3.47;1.27;;;;;;;;;;4997773;28;20029;-80
2023/12/28 11:33:45;;;;;;;2.22;1.02;;;;;;;;;;4997205;28;20054;-80
2023/12/28 11:36:11;;;;;;;3.25;1.23;;;;;;;;;;5002749;28;20026;-80
2023/12/28 11:38:39;;;;;;;11.35;2.88;;;;;;;;;;4995510;28;20394;-81
2023/12/28 11:41:06;;;;;;;7.75;2.70;;;;;;;;;;5006585;28;20022;-80
2023/12/28 11:43:35;;;;;;;6.68;1.42;;;;;;;;;;5003502;28;20034;-80
2023/12/28 11:46:05;;;;;;;2.85;1.20;;;;;;;;;;5004401;28;20094;-80
2023/12/28 11:48:30;;;;;;;3.92;2.60;;;;;;;;;;5000663;28;20037;-80
2023/12/28 11:50:58;;;;;;;3.65;1.67;;;;;;;;;;5007376;28;20030;-79
2023/12/28 11:53:24;;;;;;;2.58;1.50;;;;;;;;;;5001819;28;20510;-79
2023/12/28 11:55:50;;;;;;;4.30;1.70;;;;;;;;;;5006335;28;20049;-80
2023/12/28 11:58:18;;;;;;;10.60;3.97;;;;;;;;;;5005920;28;20064;-79
2023/12/28 12:00:43;;;;;;;6.03;2.58;;;;;;;;;;4987043;28;20025;-81
2023/12/28 12:03:13;;;;;;;6.15;1.73;;;;;;;;;;5004866;28;20037;-79
2023/12/28 12:05:39;;;;;;;3.25;1.67;;;;;;;;;;4977107;28;20608;-81
2023/12/28 12:08:27;;;;;;;4.75;1.42;;;;;;;;;;5007950;28;20021;-80
2023/12/28 12:11:05;;;;;;;6.05;2.08;;;;;;;;;;5008626;28;20506;-81
2023/12/28 12:13:31;;;;;;;12.45;3.22;;;;;;;;;;4999306;28;20034;-80
2023/12/28 12:15:58;;;;;;;29.17;8.65;;;;;;;;;;5009823;28;20490;-80
2023/12/28 12:18:25;;;;;;;22.83;7.63;;;;;;;;;;4990398;28;20021;-81
2023/12/28 12:20:51;;;;;;;17.80;6.82;;;;;;;;;;5005858;28;20408;-81
2023/12/28 12:23:17;;;;;;;20.42;6.20;;;;;;;;;;5004733;28;20030;-82
2023/12/28 12:25:55;;;;;;;7.03;3.15;;;;;;;;;;5010226;28;20069;-82
2023/12/28 12:28:21;;;;;;;7.65;1.92;;;;;;;;;;4985760;28;20037;-81
2023/12/28 12:30:50;;;;;;;4.45;3.25;;;;;;;;;;5008768;28;20482;-81
2023/12/28 12:33:16;;;;;;;6.72;2.03;;;;;;;;;;5006022;28;20030;-82
2023/12/28 12:36:02;;;;;;;5.05;1.30;;;;;;;;;;5008825;28;20044;-81
2023/12/28 12:38:28;;;;;;;3.35;0.85;;;;;;;;;;5012565;28;20038;-82
2023/12/28 12:40:54;;;;;;;3.13;1.10;;;;;;;;;;5025805;28;20034;-83
2023/12/28 12:43:20;;;;;;;1.70;1.08;;;;;;;;;;5018529;28;20042;-79
2023/12/28 12:45:46;;;;;;;3.70;1.55;;;10.00;99.90;;;;;;5028208;28;20045;-78
2023/12/28 12:48:12;;;;;;;2.35;1.20;;;;;;;;;;5012333;28;20045;-81
2023/12/28 12:50:38;;;;;;;3.00;1.15;;;;;;;;;;4989760;28;20034;-83
2023/12/28 12:53:07;;;;;;;4.38;1.60;;;;;;;;;;5006068;28;20387;-84
2023/12/28 12:55:33;;;;;;;7.43;2.00;;;;;;;;;;4990246;28;20030;-83
2023/12/28 12:57:59;;;;;;;9.93;1.30;;;;;;;;;;5010460;28;20515;-83
2023/12/28 13:00:25;;;;;;;3.40;2.20;;;;;;;;;;4999997;28;20040;-81
2023/12/28 13:02:53;;;;;;;29.80;9.75;;;;;;;;;;4988761;28;20022;-81
2023/12/28 13:05:19;;;;;;;3.38;1.90;;;;;;;;;;5003481;28;20029;-83
2023/12/28 13:07:45;;;;;;;5.78;1.25;;;;;;;;;;5004884;28;20103;-82
2023/12/28 13:10:11;;;;;;;3.63;1.42;;;;;;;;;;5012411;28;20085;-82
2023/12/28 13:12:37;;;;;;;2.88;1.25;;;;;;;;;;5014688;28;20171;-82
2023/12/28 13:15:03;;;;;;;4.50;1.58;;;;;;;;;;5006325;28;20514;-82
2023/12/28 13:17:29;;;;;;;6.32;2.20;;;;;;;;;;5009608;28;20026;-81
2023/12/28 13:19:55;;;;;;;14.88;3.50;;;;;;;;;;4993999;28;20562;-82
2023/12/28 13:22:21;;;;;;;5.78;2.17;;;;;;;;;;5012784;28;20065;-82
2023/12/28 13:24:47;;;;;;;1.75;0.90;;;;;;;;;;5005998;28;20119;-83
2023/12/28 13:27:14;;;;;;;5.30;0.90;;;;;;;;;;5010755;28;20061;-81
2023/12/28 13:29:40;;;;;;;3.20;1.02;;;;;;;;;;5001975;28;20080;-81
2023/12/28 13:32:06;;;;;;;2.42;1.00;;;;;;;;;;5003128;28;20022;-82
2023/12/28 13:34:32;;;;;;;1.30;0.80;;;;;;;;;;5002572;28;20045;-82
2023/12/28 13:37:01;;;;;;;4.03;1.30;;;;;;;;;;5006574;28;20505;-82
2023/12/28 13:39:28;;;;;;;9.00;2.65;;;;;;;;;;4998870;28;20140;-82
2023/12/28 13:41:54;;;;;;;4.75;1.40;;;;;;;;;;4997280;28;20037;-82
2023/12/28 13:44:20;;;;;;;15.32;5.55;;;;;;;;;;5001307;28;20112;-80
2023/12/28 13:46:46;;;;;;;9.82;2.80;;;;;;;;;;5007340;28;20137;-81
2023/12/28 13:49:12;;;;;;;8.70;2.85;;;;;;;;;;4998456;28;20092;-79
2023/12/28 13:51:38;;;;;;;14.25;2.60;;;;;;;;;;4998628;28;20033;-80
2023/12/28 13:54:04;;;;;;;4.55;1.08;;;;;;;;;;5003023;28;20022;-81
2023/12/28 13:56:30;;;;;;;3.03;1.00;;;;;;;;;;5003688;28;20507;-83
2023/12/28 13:58:56;;;;;;;3.67;0.98;;;;;;;;;;4988036;28;20025;-83
2023/12/28 14:01:22;;;;;;;4.15;1.30;;;;;;;;;;5001710;28;20026;-82
2023/12/28 14:03:51;;;;;;;2.38;1.02;;;;;;;;;;5003911;28;20030;-83
2023/12/28 14:06:17;;;;;;;2.08;0.82;;;;;;;;;;5000865;28;20459;-82
2023/12/28 14:08:43;;;;;;;1.90;0.73;;;;;;;;;;5003328;28;20065;-84
2023/12/28 14:11:09;;;;;;;2.25;1.00;;;;;;;;;;5006025;28;20018;-83
2023/12/28 14:13:36;;;;;;;1.55;0.60;;;;;;;;;;4999875;28;20026;-80
2023/12/28 14:16:02;;;;;;;4.47;1.55;;;;;;;;;;5009298;28;20418;-80
2023/12/28 14:18:28;;;;;;;3.78;1.00;;;;;;;;;;4996724;28;20386;-80
2023/12/28 14:20:54;;;;;;;4.32;1.10;;;;;;;;;;5001831;28;20049;-81
2023/12/28 14:23:20;;;;;;;1.52;0.70;;;;;;;;;;4999728;28;20494;-81
2023/12/28 14:25:51;;;;;;;2.25;0.68;;;;;;;;;;5001489;28;20386;-78
2023/12/28 14:28:18;;;;;;;1.45;0.60;;;;;;;;;;4996600;28;20064;-81
2023/12/28 14:30:44;;;;;;;1.42;0.70;;;;;;;;;;4998699;28;20064;-81
2023/12/28 14:33:11;;;;;;;8.95;2.40;;;;;;;;;;5001019;28;20133;-81
2023/12/28 14:35:38;;;;;;;12.18;4.45;;;;;;;;;;4983556;28;20310;-79
2023/12/28 14:38:05;;;;;;;5.80;2.40;;;;;;;;;;4994552;28;20754;-80